sensor_id;sensor_type;location;lat;lon;timestamp;P1;durP1;ratioP1;P2;durP2;ratioP2
76733;SDS011;65660;53.288;14.666;2023-04-20T00:04:13;17.53;;;9.20;;
76733;SDS011;65660;53.288;14.666;2023-04-20T00:09:14;18.53;;;8.63;;
76733;SDS011;65660;53.288;14.666;2023-04-20T00:14:15;13.67;;;7.90;;
76733;SDS011;65660;53.288;14.666;2023-04-20T00:19:15;14.43;;;8.10;;
76733;SDS011;65660;53.288;14.666;2023-04-20T00:24:16;13.17;;;7.60;;
76733;SDS011;65660;53.288;14.666;2023-04-20T00:29:17;16.67;;;7.60;;
76733;SDS011;65660;53.288;14.666;2023-04-20T00:34:17;16.63;;;8.43;;
76733;SDS011;65660;53.288;14.666;2023-04-20T00:39:18;16.33;;;7.97;;
76733;SDS011;65660;53.288;14.666;2023-04-20T00:44:18;16.07;;;7.90;;
76733;SDS011;65660;53.288;14.666;2023-04-20T00:49:19;16.53;;;8.00;;
76733;SDS011;65660;53.288;14.666;2023-04-20T00:54:19;14.60;;;7.00;;
76733;SDS011;65660;53.288;14.666;2023-04-20T00:59:21;16.67;;;7.97;;
76733;SDS011;65660;53.288;14.666;2023-04-20T01:04:22;17.17;;;7.53;;
76733;SDS011;65660;53.288;14.666;2023-04-20T01:09:23;16.00;;;7.50;;
76733;SDS011;65660;53.288;14.666;2023-04-20T01:14:23;14.70;;;7.27;;
76733;SDS011;65660;53.288;14.666;2023-04-20T01:19:24;19.20;;;7.97;;
76733;SDS011;65660;53.288;14.666;2023-04-20T01:24:24;13.77;;;6.83;;
76733;SDS011;65660;53.288;14.666;2023-04-20T01:29:25;20.43;;;7.77;;
76733;SDS011;65660;53.288;14.666;2023-04-20T01:34:25;12.10;;;6.73;;
76733;SDS011;65660;53.288;14.666;2023-04-20T01:39:26;15.87;;;9.43;;
76733;SDS011;65660;53.288;14.666;2023-04-20T01:44:27;15.43;;;7.80;;
76733;SDS011;65660;53.288;14.666;2023-04-20T01:49:27;15.20;;;8.20;;
76733;SDS011;65660;53.288;14.666;2023-04-20T01:54:28;14.17;;;7.43;;
76733;SDS011;65660;53.288;14.666;2023-04-20T01:59:28;14.83;;;7.87;;
76733;SDS011;65660;53.288;14.666;2023-04-20T02:04:29;18.67;;;8.00;;
76733;SDS011;65660;53.288;14.666;2023-04-20T02:09:30;23.70;;;9.43;;
76733;SDS011;65660;53.288;14.666;2023-04-20T02:14:32;14.57;;;7.00;;
76733;SDS011;65660;53.288;14.666;2023-04-20T02:19:32;18.00;;;7.53;;
76733;SDS011;65660;53.288;14.666;2023-04-20T02:24:33;16.30;;;7.23;;
76733;SDS011;65660;53.288;14.666;2023-04-20T02:29:33;13.73;;;7.20;;
76733;SDS011;65660;53.288;14.666;2023-04-20T02:34:34;16.93;;;8.10;;
76733;SDS011;65660;53.288;14.666;2023-04-20T02:39:34;18.97;;;8.90;;
76733;SDS011;65660;53.288;14.666;2023-04-20T02:44:35;15.03;;;7.70;;
76733;SDS011;65660;53.288;14.666;2023-04-20T02:49:35;15.87;;;7.37;;
76733;SDS011;65660;53.288;14.666;2023-04-20T02:54:36;17.73;;;8.57;;
76733;SDS011;65660;53.288;14.666;2023-04-20T02:59:36;16.97;;;8.43;;
76733;SDS011;65660;53.288;14.666;2023-04-20T03:04:37;21.67;;;9.07;;
76733;SDS011;65660;53.288;14.666;2023-04-20T03:09:37;15.50;;;7.90;;
76733;SDS011;65660;53.288;14.666;2023-04-20T03:14:38;17.57;;;8.50;;
76733;SDS011;65660;53.288;14.666;2023-04-20T03:19:38;16.53;;;8.40;;
76733;SDS011;65660;53.288;14.666;2023-04-20T03:24:39;12.00;;;8.10;;
76733;SDS011;65660;53.288;14.666;2023-04-20T03:29:39;17.87;;;8.20;;
76733;SDS011;65660;53.288;14.666;2023-04-20T03:34:40;16.37;;;7.97;;
76733;SDS011;65660;53.288;14.666;2023-04-20T03:39:40;16.37;;;8.23;;
76733;SDS011;65660;53.288;14.666;2023-04-20T03:44:41;13.13;;;8.13;;
76733;SDS011;65660;53.288;14.666;2023-04-20T03:49:41;15.43;;;8.30;;
76733;SDS011;65660;53.288;14.666;2023-04-20T03:54:42;20.27;;;9.50;;
76733;SDS011;65660;53.288;14.666;2023-04-20T03:59:42;18.60;;;8.47;;
76733;SDS011;65660;53.288;14.666;2023-04-20T04:04:43;16.03;;;8.10;;
76733;SDS011;65660;53.288;14.666;2023-04-20T04:09:43;14.27;;;8.07;;
76733;SDS011;65660;53.288;14.666;2023-04-20T04:14:44;15.83;;;8.63;;
76733;SDS011;65660;53.288;14.666;2023-04-20T04:19:45;19.40;;;9.63;;
76733;SDS011;65660;53.288;14.666;2023-04-20T04:24:45;18.30;;;8.87;;
76733;SDS011;65660;53.288;14.666;2023-04-20T04:29:45;21.97;;;10.63;;
76733;SDS011;65660;53.288;14.666;2023-04-20T04:34:46;15.23;;;8.23;;
76733;SDS011;65660;53.288;14.666;2023-04-20T04:39:49;12.43;;;8.00;;
76733;SDS011;65660;53.288;14.666;2023-04-20T04:44:49;13.67;;;8.17;;
76733;SDS011;65660;53.288;14.666;2023-04-20T04:49:50;14.40;;;9.03;;
76733;SDS011;65660;53.288;14.666;2023-04-20T04:54:50;15.93;;;8.53;;
76733;SDS011;65660;53.288;14.666;2023-04-20T04:59:51;19.93;;;10.83;;
76733;SDS011;65660;53.288;14.666;2023-04-20T05:04:52;13.97;;;8.77;;
76733;SDS011;65660;53.288;14.666;2023-04-20T05:09:52;14.10;;;8.37;;
76733;SDS011;65660;53.288;14.666;2023-04-20T05:14:53;19.80;;;10.07;;
76733;SDS011;65660;53.288;14.666;2023-04-20T05:19:54;15.83;;;9.27;;
76733;SDS011;65660;53.288;14.666;2023-04-20T05:24:54;16.90;;;9.20;;
76733;SDS011;65660;53.288;14.666;2023-04-20T05:29:55;18.03;;;9.53;;
76733;SDS011;65660;53.288;14.666;2023-04-20T05:34:55;15.10;;;9.33;;
76733;SDS011;65660;53.288;14.666;2023-04-20T05:39:56;21.53;;;11.37;;
76733;SDS011;65660;53.288;14.666;2023-04-20T05:44:56;17.93;;;10.47;;
76733;SDS011;65660;53.288;14.666;2023-04-20T05:49:57;13.93;;;9.07;;
76733;SDS011;65660;53.288;14.666;2023-04-20T05:54:58;18.63;;;11.27;;
76733;SDS011;65660;53.288;14.666;2023-04-20T05:59:58;19.13;;;10.13;;
76733;SDS011;65660;53.288;14.666;2023-04-20T06:04:58;19.47;;;11.10;;
76733;SDS011;65660;53.288;14.666;2023-04-20T06:09:59;20.97;;;10.10;;
76733;SDS011;65660;53.288;14.666;2023-04-20T06:15:00;19.53;;;10.33;;
76733;SDS011;65660;53.288;14.666;2023-04-20T06:20:00;16.27;;;10.23;;
76733;SDS011;65660;53.288;14.666;2023-04-20T06:25:01;14.87;;;9.50;;
76733;SDS011;65660;53.288;14.666;2023-04-20T06:30:02;15.70;;;9.40;;
76733;SDS011;65660;53.288;14.666;2023-04-20T06:35:03;14.83;;;9.20;;
76733;SDS011;65660;53.288;14.666;2023-04-20T06:40:05;15.70;;;9.40;;
76733;SDS011;65660;53.288;14.666;2023-04-20T06:45:06;11.80;;;8.30;;
76733;SDS011;65660;53.288;14.666;2023-04-20T06:50:07;15.33;;;9.27;;
76733;SDS011;65660;53.288;14.666;2023-04-20T06:55:08;12.80;;;8.97;;
76733;SDS011;65660;53.288;14.666;2023-04-20T07:00:09;12.83;;;8.50;;
76733;SDS011;65660;53.288;14.666;2023-04-20T07:05:11;11.87;;;8.57;;
76733;SDS011;65660;53.288;14.666;2023-04-20T07:10:12;11.93;;;8.60;;
76733;SDS011;65660;53.288;14.666;2023-04-20T07:15:13;13.70;;;8.97;;
76733;SDS011;65660;53.288;14.666;2023-04-20T07:20:14;11.53;;;8.60;;
76733;SDS011;65660;53.288;14.666;2023-04-20T07:25:14;11.83;;;8.57;;
76733;SDS011;65660;53.288;14.666;2023-04-20T07:30:15;10.50;;;8.10;;
76733;SDS011;65660;53.288;14.666;2023-04-20T07:35:15;12.43;;;9.30;;
76733;SDS011;65660;53.288;14.666;2023-04-20T07:40:16;13.40;;;9.00;;
76733;SDS011;65660;53.288;14.666;2023-04-20T07:45:16;13.83;;;9.70;;
76733;SDS011;65660;53.288;14.666;2023-04-20T07:50:17;13.30;;;9.37;;
76733;SDS011;65660;53.288;14.666;2023-04-20T07:55:17;13.33;;;9.50;;
76733;SDS011;65660;53.288;14.666;2023-04-20T08:00:18;13.13;;;8.90;;
76733;SDS011;65660;53.288;14.666;2023-04-20T08:05:19;15.97;;;10.40;;
76733;SDS011;65660;53.288;14.666;2023-04-20T08:10:20;14.73;;;10.00;;
76733;SDS011;65660;53.288;14.666;2023-04-20T08:15:20;13.67;;;10.30;;
76733;SDS011;65660;53.288;14.666;2023-04-20T08:20:21;13.37;;;9.77;;
76733;SDS011;65660;53.288;14.666;2023-04-20T08:25:21;13.70;;;10.07;;
76733;SDS011;65660;53.288;14.666;2023-04-20T08:30:22;13.90;;;9.50;;
76733;SDS011;65660;53.288;14.666;2023-04-20T08:35:23;14.03;;;9.93;;
76733;SDS011;65660;53.288;14.666;2023-04-20T08:40:23;13.67;;;9.80;;
76733;SDS011;65660;53.288;14.666;2023-04-20T08:45:24;13.13;;;9.93;;
76733;SDS011;65660;53.288;14.666;2023-04-20T08:50:25;15.27;;;10.20;;
76733;SDS011;65660;53.288;14.666;2023-04-20T08:55:26;11.53;;;8.83;;
76733;SDS011;65660;53.288;14.666;2023-04-20T09:00:27;12.30;;;9.23;;
76733;SDS011;65660;53.288;14.666;2023-04-20T09:05:28;12.10;;;9.27;;
76733;SDS011;65660;53.288;14.666;2023-04-20T09:10:41;9.93;;;8.40;;
76733;SDS011;65660;53.288;14.666;2023-04-20T09:15:42;12.35;;;9.00;;
76733;SDS011;65660;53.288;14.666;2023-04-20T09:20:42;12.20;;;9.48;;
76733;SDS011;65660;53.288;14.666;2023-04-20T09:25:45;12.63;;;9.15;;
76733;SDS011;65660;53.288;14.666;2023-04-20T09:30:55;12.95;;;8.85;;
76733;SDS011;65660;53.288;14.666;2023-04-20T09:36:03;12.45;;;8.80;;
76733;SDS011;65660;53.288;14.666;2023-04-20T09:41:05;14.07;;;8.82;;
76733;SDS011;65660;53.288;14.666;2023-04-20T09:46:07;11.32;;;8.77;;
76733;SDS011;65660;53.288;14.666;2023-04-20T09:51:08;11.68;;;8.25;;
76733;SDS011;65660;53.288;14.666;2023-04-20T09:56:10;11.18;;;8.82;;
76733;SDS011;65660;53.288;14.666;2023-04-20T10:01:12;11.10;;;8.40;;
76733;SDS011;65660;53.288;14.666;2023-04-20T10:11:35;12.43;;;8.07;;
76733;SDS011;65660;53.288;14.666;2023-04-20T10:16:37;11.77;;;7.90;;
76733;SDS011;65660;53.288;14.666;2023-04-20T10:21:48;10.10;;;7.95;;
76733;SDS011;65660;53.288;14.666;2023-04-20T10:26:49;12.27;;;8.40;;
76733;SDS011;65660;53.288;14.666;2023-04-20T10:31:50;12.00;;;9.52;;
76733;SDS011;65660;53.288;14.666;2023-04-20T10:36:50;10.82;;;8.38;;
76733;SDS011;65660;53.288;14.666;2023-04-20T10:41:52;10.90;;;9.13;;
76733;SDS011;65660;53.288;14.666;2023-04-20T10:46:53;10.88;;;9.30;;
76733;SDS011;65660;53.288;14.666;2023-04-20T10:51:55;12.13;;;9.70;;
76733;SDS011;65660;53.288;14.666;2023-04-20T10:56:55;13.90;;;9.70;;
76733;SDS011;65660;53.288;14.666;2023-04-20T11:01:56;11.57;;;9.68;;
76733;SDS011;65660;53.288;14.666;2023-04-20T11:07:03;11.40;;;9.38;;
76733;SDS011;65660;53.288;14.666;2023-04-20T11:12:08;11.07;;;8.57;;
76733;SDS011;65660;53.288;14.666;2023-04-20T11:17:10;12.40;;;8.93;;
76733;SDS011;65660;53.288;14.666;2023-04-20T11:22:10;11.57;;;10.13;;
76733;SDS011;65660;53.288;14.666;2023-04-20T11:27:20;11.80;;;8.07;;
76733;SDS011;65660;53.288;14.666;2023-04-20T11:32:21;9.60;;;7.47;;
76733;SDS011;65660;53.288;14.666;2023-04-20T11:37:21;7.93;;;6.93;;
76733;SDS011;65660;53.288;14.666;2023-04-20T11:42:22;9.20;;;6.53;;
76733;SDS011;65660;53.288;14.666;2023-04-20T11:47:22;8.88;;;6.65;;
76733;SDS011;65660;53.288;14.666;2023-04-20T11:52:23;10.15;;;7.50;;
76733;SDS011;65660;53.288;14.666;2023-04-20T11:57:24;9.52;;;7.22;;
76733;SDS011;65660;53.288;14.666;2023-04-20T12:02:28;9.77;;;7.90;;
76733;SDS011;65660;53.288;14.666;2023-04-20T12:07:29;10.65;;;8.77;;
76733;SDS011;65660;53.288;14.666;2023-04-20T12:12:30;9.55;;;6.95;;
76733;SDS011;65660;53.288;14.666;2023-04-20T12:17:33;8.50;;;7.63;;
76733;SDS011;65660;53.288;14.666;2023-04-20T12:22:41;9.65;;;7.43;;
76733;SDS011;65660;53.288;14.666;2023-04-20T12:28:13;9.85;;;7.97;;
76733;SDS011;65660;53.288;14.666;2023-04-20T13:03:10;6.90;;;5.72;;
76733;SDS011;65660;53.288;14.666;2023-04-20T13:20:37;6.45;;;5.78;;
76733;SDS011;65660;53.288;14.666;2023-04-20T13:25:37;6.57;;;5.88;;
76733;SDS011;65660;53.288;14.666;2023-04-20T13:30:38;7.97;;;7.03;;
76733;SDS011;65660;53.288;14.666;2023-04-20T13:35:40;8.98;;;5.55;;
76733;SDS011;65660;53.288;14.666;2023-04-20T13:40:45;7.53;;;5.45;;
76733;SDS011;65660;53.288;14.666;2023-04-20T13:45:46;11.57;;;8.02;;
76733;SDS011;65660;53.288;14.666;2023-04-20T13:50:55;8.32;;;4.90;;
76733;SDS011;65660;53.288;14.666;2023-04-20T13:56:02;7.75;;;5.70;;
76733;SDS011;65660;53.288;14.666;2023-04-20T14:01:08;7.28;;;5.40;;
76733;SDS011;65660;53.288;14.666;2023-04-20T14:06:34;8.07;;;5.78;;
76733;SDS011;65660;53.288;14.666;2023-04-20T14:11:45;8.45;;;6.05;;
76733;SDS011;65660;53.288;14.666;2023-04-20T14:16:46;7.13;;;5.13;;
76733;SDS011;65660;53.288;14.666;2023-04-20T14:21:48;6.68;;;5.20;;
76733;SDS011;65660;53.288;14.666;2023-04-20T15:20:55;8.30;;;5.90;;
76733;SDS011;65660;53.288;14.666;2023-04-20T15:26:37;8.93;;;6.28;;
76733;SDS011;65660;53.288;14.666;2023-04-20T15:31:44;8.15;;;6.90;;
76733;SDS011;65660;53.288;14.666;2023-04-20T15:36:53;9.13;;;6.95;;
76733;SDS011;65660;53.288;14.666;2023-04-20T15:42:03;8.20;;;6.55;;
76733;SDS011;65660;53.288;14.666;2023-04-20T15:53:02;6.68;;;6.03;;
76733;SDS011;65660;53.288;14.666;2023-04-20T16:11:12;10.30;;;5.13;;
76733;SDS011;65660;53.288;14.666;2023-04-20T17:24:45;7.53;;;5.40;;
76733;SDS011;65660;53.288;14.666;2023-04-20T17:29:46;9.75;;;5.90;;
76733;SDS011;65660;53.288;14.666;2023-04-20T17:34:46;10.65;;;6.40;;
76733;SDS011;65660;53.288;14.666;2023-04-20T17:39:47;11.40;;;6.18;;
76733;SDS011;65660;53.288;14.666;2023-04-20T17:44:47;8.48;;;6.60;;
76733;SDS011;65660;53.288;14.666;2023-04-20T17:49:48;9.13;;;7.55;;
76733;SDS011;65660;53.288;14.666;2023-04-20T17:54:48;15.35;;;9.93;;
76733;SDS011;65660;53.288;14.666;2023-04-20T17:59:48;10.98;;;7.97;;
76733;SDS011;65660;53.288;14.666;2023-04-20T18:04:49;8.32;;;6.68;;
76733;SDS011;65660;53.288;14.666;2023-04-20T18:09:49;13.63;;;7.75;;
76733;SDS011;65660;53.288;14.666;2023-04-20T18:14:50;9.90;;;6.85;;
76733;SDS011;65660;53.288;14.666;2023-04-20T18:19:50;11.55;;;7.50;;
76733;SDS011;65660;53.288;14.666;2023-04-20T18:24:51;10.68;;;6.95;;
76733;SDS011;65660;53.288;14.666;2023-04-20T18:29:51;8.23;;;7.10;;
76733;SDS011;65660;53.288;14.666;2023-04-20T18:34:52;11.00;;;8.10;;
76733;SDS011;65660;53.288;14.666;2023-04-20T18:39:52;11.23;;;7.80;;
76733;SDS011;65660;53.288;14.666;2023-04-20T18:44:53;9.05;;;7.85;;
76733;SDS011;65660;53.288;14.666;2023-04-20T18:49:53;8.80;;;7.78;;
76733;SDS011;65660;53.288;14.666;2023-04-20T18:54:54;8.48;;;7.57;;
76733;SDS011;65660;53.288;14.666;2023-04-20T18:59:55;7.65;;;6.55;;
76733;SDS011;65660;53.288;14.666;2023-04-20T19:04:55;8.85;;;6.63;;
76733;SDS011;65660;53.288;14.666;2023-04-20T19:09:55;9.88;;;6.05;;
76733;SDS011;65660;53.288;14.666;2023-04-20T19:14:56;12.02;;;6.68;;
76733;SDS011;65660;53.288;14.666;2023-04-20T19:19:57;9.10;;;6.60;;
76733;SDS011;65660;53.288;14.666;2023-04-20T19:24:57;11.52;;;6.10;;
76733;SDS011;65660;53.288;14.666;2023-04-20T19:29:57;9.95;;;6.32;;
76733;SDS011;65660;53.288;14.666;2023-04-20T19:34:58;13.05;;;6.18;;
76733;SDS011;65660;53.288;14.666;2023-04-20T19:39:58;11.90;;;7.30;;
76733;SDS011;65660;53.288;14.666;2023-04-20T19:44:59;11.02;;;7.10;;
76733;SDS011;65660;53.288;14.666;2023-04-20T19:50:00;9.75;;;7.90;;
76733;SDS011;65660;53.288;14.666;2023-04-20T19:55:01;10.18;;;7.30;;
76733;SDS011;65660;53.288;14.666;2023-04-20T20:00:03;10.93;;;6.35;;
76733;SDS011;65660;53.288;14.666;2023-04-20T20:05:04;14.15;;;6.72;;
76733;SDS011;65660;53.288;14.666;2023-04-20T20:10:05;13.38;;;6.35;;
76733;SDS011;65660;53.288;14.666;2023-04-20T20:15:05;10.35;;;6.07;;
76733;SDS011;65660;53.288;14.666;2023-04-20T20:20:06;15.33;;;6.40;;
76733;SDS011;65660;53.288;14.666;2023-04-20T20:25:07;13.27;;;6.10;;
76733;SDS011;65660;53.288;14.666;2023-04-20T20:30:08;10.43;;;6.20;;
76733;SDS011;65660;53.288;14.666;2023-04-20T20:35:09;12.40;;;6.27;;
76733;SDS011;65660;53.288;14.666;2023-04-20T20:40:10;13.00;;;6.47;;
76733;SDS011;65660;53.288;14.666;2023-04-20T20:45:11;13.90;;;6.50;;
76733;SDS011;65660;53.288;14.666;2023-04-20T20:50:12;9.17;;;5.77;;
76733;SDS011;65660;53.288;14.666;2023-04-20T20:55:14;12.90;;;6.47;;
76733;SDS011;65660;53.288;14.666;2023-04-20T21:00:14;16.60;;;7.47;;
76733;SDS011;65660;53.288;14.666;2023-04-20T21:05:15;11.90;;;6.73;;
76733;SDS011;65660;53.288;14.666;2023-04-20T21:10:15;12.13;;;7.57;;
76733;SDS011;65660;53.288;14.666;2023-04-20T21:15:16;13.50;;;6.93;;
76733;SDS011;65660;53.288;14.666;2023-04-20T21:20:16;11.17;;;6.70;;
76733;SDS011;65660;53.288;14.666;2023-04-20T21:25:17;16.60;;;7.87;;
76733;SDS011;65660;53.288;14.666;2023-04-20T21:30:17;11.97;;;8.50;;
76733;SDS011;65660;53.288;14.666;2023-04-20T21:35:18;14.13;;;7.60;;
76733;SDS011;65660;53.288;14.666;2023-04-20T21:40:18;14.53;;;8.00;;
76733;SDS011;65660;53.288;14.666;2023-04-20T21:45:19;17.33;;;10.00;;
76733;SDS011;65660;53.288;14.666;2023-04-20T21:50:19;12.33;;;9.40;;
76733;SDS011;65660;53.288;14.666;2023-04-20T21:55:20;10.13;;;8.27;;
76733;SDS011;65660;53.288;14.666;2023-04-20T22:00:20;14.00;;;9.00;;
76733;SDS011;65660;53.288;14.666;2023-04-20T22:05:21;15.10;;;8.93;;
76733;SDS011;65660;53.288;14.666;2023-04-20T22:10:21;14.67;;;8.63;;
76733;SDS011;65660;53.288;14.666;2023-04-20T22:15:22;15.50;;;9.17;;
76733;SDS011;65660;53.288;14.666;2023-04-20T22:20:23;14.80;;;9.13;;
76733;SDS011;65660;53.288;14.666;2023-04-20T22:25:23;13.10;;;9.47;;
76733;SDS011;65660;53.288;14.666;2023-04-20T22:30:23;16.37;;;10.93;;
76733;SDS011;65660;53.288;14.666;2023-04-20T22:35:24;14.70;;;9.40;;
76733;SDS011;65660;53.288;14.666;2023-04-20T22:40:24;12.50;;;9.00;;
76733;SDS011;65660;53.288;14.666;2023-04-20T22:45:25;15.73;;;11.13;;
76733;SDS011;65660;53.288;14.666;2023-04-20T22:50:25;12.17;;;9.10;;
76733;SDS011;65660;53.288;14.666;2023-04-20T22:55:26;13.83;;;10.80;;
76733;SDS011;65660;53.288;14.666;2023-04-20T23:00:26;13.63;;;9.67;;
76733;SDS011;65660;53.288;14.666;2023-04-20T23:05:27;13.70;;;9.60;;
76733;SDS011;65660;53.288;14.666;2023-04-20T23:10:27;13.20;;;10.47;;
76733;SDS011;65660;53.288;14.666;2023-04-20T23:15:28;12.50;;;9.30;;
76733;SDS011;65660;53.288;14.666;2023-04-20T23:20:28;14.83;;;9.17;;
76733;SDS011;65660;53.288;14.666;2023-04-20T23:25:29;11.70;;;9.37;;
76733;SDS011;65660;53.288;14.666;2023-04-20T23:30:29;13.60;;;9.70;;
76733;SDS011;65660;53.288;14.666;2023-04-20T23:35:30;11.33;;;9.47;;
76733;SDS011;65660;53.288;14.666;2023-04-20T23:40:30;13.30;;;9.67;;
76733;SDS011;65660;53.288;14.666;2023-04-20T23:45:31;13.53;;;9.57;;
76733;SDS011;65660;53.288;14.666;2023-04-20T23:50:31;14.47;;;10.53;;
76733;SDS011;65660;53.288;14.666;2023-04-20T23:55:31;12.33;;;9.87;;
